sensor_id;sensor_type;location;lat;lon;timestamp;temperature;humidity
47338;DHT22;33069;51.970;5.892;2023-12-22T00:02:42;6.20;83.20
47338;DHT22;33069;51.970;5.892;2023-12-22T00:05:27;6.30;83.10
47338;DHT22;33069;51.970;5.892;2023-12-22T00:08:13;6.30;83.30
47338;DHT22;33069;51.970;5.892;2023-12-22T00:10:59;6.30;83.50
47338;DHT22;33069;51.970;5.892;2023-12-22T00:13:45;6.30;83.50
47338;DHT22;33069;51.970;5.892;2023-12-22T00:16:31;6.30;83.60
47338;DHT22;33069;51.970;5.892;2023-12-22T00:19:17;6.40;83.60
47338;DHT22;33069;51.970;5.892;2023-12-22T00:22:03;6.40;83.60
47338;DHT22;33069;51.970;5.892;2023-12-22T00:24:49;6.40;84.00
47338;DHT22;33069;51.970;5.892;2023-12-22T00:27:35;6.40;84.80
47338;DHT22;33069;51.970;5.892;2023-12-22T00:30:21;6.20;85.20
47338;DHT22;33069;51.970;5.892;2023-12-22T00:33:07;6.00;85.90
47338;DHT22;33069;51.970;5.892;2023-12-22T00:35:53;5.90;86.90
47338;DHT22;33069;51.970;5.892;2023-12-22T00:38:39;5.70;87.30
47338;DHT22;33069;51.970;5.892;2023-12-22T00:41:25;5.80;88.00
47338;DHT22;33069;51.970;5.892;2023-12-22T00:44:11;5.60;87.40
47338;DHT22;33069;51.970;5.892;2023-12-22T00:46:58;5.60;87.50
47338;DHT22;33069;51.970;5.892;2023-12-22T00:49:44;5.60;87.30
47338;DHT22;33069;51.970;5.892;2023-12-22T00:52:30;5.50;86.80
47338;DHT22;33069;51.970;5.892;2023-12-22T00:55:16;5.50;86.30
47338;DHT22;33069;51.970;5.892;2023-12-22T00:58:02;5.50;86.30
47338;DHT22;33069;51.970;5.892;2023-12-22T01:00:48;5.50;86.50
47338;DHT22;33069;51.970;5.892;2023-12-22T01:03:34;5.50;86.10
47338;DHT22;33069;51.970;5.892;2023-12-22T01:06:20;5.50;86.20
47338;DHT22;33069;51.970;5.892;2023-12-22T01:09:06;5.60;85.70
47338;DHT22;33069;51.970;5.892;2023-12-22T01:11:52;5.50;85.80
47338;DHT22;33069;51.970;5.892;2023-12-22T01:14:38;5.50;85.40
47338;DHT22;33069;51.970;5.892;2023-12-22T01:17:24;5.50;84.90
47338;DHT22;33069;51.970;5.892;2023-12-22T01:20:10;5.50;84.10
47338;DHT22;33069;51.970;5.892;2023-12-22T01:22:56;5.60;83.60
47338;DHT22;33069;51.970;5.892;2023-12-22T01:25:42;5.50;84.10
47338;DHT22;33069;51.970;5.892;2023-12-22T01:28:28;5.50;84.30
47338;DHT22;33069;51.970;5.892;2023-12-22T01:31:14;5.60;83.70
47338;DHT22;33069;51.970;5.892;2023-12-22T01:34:00;5.60;83.50
47338;DHT22;33069;51.970;5.892;2023-12-22T01:36:46;5.60;83.90
47338;DHT22;33069;51.970;5.892;2023-12-22T01:39:32;5.60;84.20
47338;DHT22;33069;51.970;5.892;2023-12-22T01:42:18;5.70;84.20
47338;DHT22;33069;51.970;5.892;2023-12-22T01:45:04;5.60;85.00
47338;DHT22;33069;51.970;5.892;2023-12-22T01:47:50;5.60;85.00
47338;DHT22;33069;51.970;5.892;2023-12-22T01:50:36;5.70;85.10
47338;DHT22;33069;51.970;5.892;2023-12-22T01:53:24;5.70;85.00
47338;DHT22;33069;51.970;5.892;2023-12-22T01:56:11;5.70;85.20
47338;DHT22;33069;51.970;5.892;2023-12-22T01:58:59;5.70;85.50
47338;DHT22;33069;51.970;5.892;2023-12-22T02:01:45;5.60;85.60
47338;DHT22;33069;51.970;5.892;2023-12-22T02:04:31;5.60;85.70
47338;DHT22;33069;51.970;5.892;2023-12-22T02:07:17;5.70;85.60
47338;DHT22;33069;51.970;5.892;2023-12-22T02:10:03;5.70;85.60
47338;DHT22;33069;51.970;5.892;2023-12-22T02:12:49;5.70;85.70
47338;DHT22;33069;51.970;5.892;2023-12-22T02:15:35;5.80;85.50
47338;DHT22;33069;51.970;5.892;2023-12-22T02:18:26;5.70;85.40
47338;DHT22;33069;51.970;5.892;2023-12-22T02:21:13;5.80;85.50
47338;DHT22;33069;51.970;5.892;2023-12-22T02:23:59;5.80;85.30
47338;DHT22;33069;51.970;5.892;2023-12-22T02:26:46;5.80;85.20
47338;DHT22;33069;51.970;5.892;2023-12-22T02:29:36;5.90;85.20
47338;DHT22;33069;51.970;5.892;2023-12-22T02:32:27;5.80;85.30
47338;DHT22;33069;51.970;5.892;2023-12-22T02:35:20;5.80;85.70
47338;DHT22;33069;51.970;5.892;2023-12-22T02:38:07;5.80;85.80
47338;DHT22;33069;51.970;5.892;2023-12-22T02:40:53;5.80;86.00
47338;DHT22;33069;51.970;5.892;2023-12-22T02:43:39;5.80;85.90
47338;DHT22;33069;51.970;5.892;2023-12-22T02:46:25;5.80;86.10
47338;DHT22;33069;51.970;5.892;2023-12-22T02:49:11;5.90;86.20
47338;DHT22;33069;51.970;5.892;2023-12-22T02:51:59;5.90;86.10
47338;DHT22;33069;51.970;5.892;2023-12-22T02:54:45;6.00;86.20
47338;DHT22;33069;51.970;5.892;2023-12-22T02:57:32;5.90;86.20
47338;DHT22;33069;51.970;5.892;2023-12-22T03:00:18;5.90;86.20
47338;DHT22;33069;51.970;5.892;2023-12-22T03:03:04;5.90;86.20
47338;DHT22;33069;51.970;5.892;2023-12-22T03:05:50;5.90;86.20
47338;DHT22;33069;51.970;5.892;2023-12-22T03:08:36;5.90;86.10
47338;DHT22;33069;51.970;5.892;2023-12-22T03:11:22;6.00;86.00
47338;DHT22;33069;51.970;5.892;2023-12-22T03:14:09;6.00;86.10
47338;DHT22;33069;51.970;5.892;2023-12-22T03:16:56;6.00;86.00
47338;DHT22;33069;51.970;5.892;2023-12-22T03:19:42;6.10;85.20
47338;DHT22;33069;51.970;5.892;2023-12-22T03:22:28;6.30;83.90
47338;DHT22;33069;51.970;5.892;2023-12-22T03:25:14;6.40;83.60
47338;DHT22;33069;51.970;5.892;2023-12-22T03:27:59;6.50;82.90
47338;DHT22;33069;51.970;5.892;2023-12-22T03:30:45;5.30;84.50
47338;DHT22;33069;51.970;5.892;2023-12-22T03:33:32;5.40;85.20
47338;DHT22;33069;51.970;5.892;2023-12-22T03:36:17;5.00;85.90
47338;DHT22;33069;51.970;5.892;2023-12-22T03:39:04;4.70;85.80
47338;DHT22;33069;51.970;5.892;2023-12-22T03:41:50;4.70;85.80
47338;DHT22;33069;51.970;5.892;2023-12-22T03:44:36;4.70;86.00
47338;DHT22;33069;51.970;5.892;2023-12-22T03:47:22;4.70;86.40
47338;DHT22;33069;51.970;5.892;2023-12-22T03:50:08;4.60;87.00
47338;DHT22;33069;51.970;5.892;2023-12-22T03:52:54;4.50;87.50
47338;DHT22;33069;51.970;5.892;2023-12-22T03:55:40;4.50;87.60
47338;DHT22;33069;51.970;5.892;2023-12-22T03:58:26;4.60;87.50
47338;DHT22;33069;51.970;5.892;2023-12-22T04:01:14;4.50;87.80
47338;DHT22;33069;51.970;5.892;2023-12-22T04:04:00;4.50;87.90
47338;DHT22;33069;51.970;5.892;2023-12-22T04:06:46;4.50;88.20
47338;DHT22;33069;51.970;5.892;2023-12-22T04:09:32;4.60;88.30
47338;DHT22;33069;51.970;5.892;2023-12-22T04:12:18;4.70;88.20
47338;DHT22;33069;51.970;5.892;2023-12-22T04:15:04;4.70;88.50
47338;DHT22;33069;51.970;5.892;2023-12-22T04:17:51;4.80;88.70
47338;DHT22;33069;51.970;5.892;2023-12-22T04:20:36;5.00;88.50
47338;DHT22;33069;51.970;5.892;2023-12-22T04:23:22;5.10;87.60
47338;DHT22;33069;51.970;5.892;2023-12-22T04:26:08;5.10;87.10
47338;DHT22;33069;51.970;5.892;2023-12-22T04:28:54;5.20;86.90
47338;DHT22;33069;51.970;5.892;2023-12-22T04:31:40;5.20;86.80
47338;DHT22;33069;51.970;5.892;2023-12-22T04:34:26;5.30;86.80
47338;DHT22;33069;51.970;5.892;2023-12-22T04:37:12;5.40;86.20
47338;DHT22;33069;51.970;5.892;2023-12-22T04:39:58;5.50;86.30
47338;DHT22;33069;51.970;5.892;2023-12-22T04:42:44;5.50;86.20
47338;DHT22;33069;51.970;5.892;2023-12-22T04:45:30;5.50;86.40
47338;DHT22;33069;51.970;5.892;2023-12-22T04:48:16;5.50;86.70
47338;DHT22;33069;51.970;5.892;2023-12-22T04:51:02;5.60;86.60
47338;DHT22;33069;51.970;5.892;2023-12-22T04:53:48;5.60;86.60
47338;DHT22;33069;51.970;5.892;2023-12-22T04:56:34;5.60;86.40
47338;DHT22;33069;51.970;5.892;2023-12-22T04:59:20;5.60;86.50
47338;DHT22;33069;51.970;5.892;2023-12-22T05:02:06;5.70;86.50
47338;DHT22;33069;51.970;5.892;2023-12-22T05:04:52;5.70;86.30
47338;DHT22;33069;51.970;5.892;2023-12-22T05:07:38;5.80;86.40
47338;DHT22;33069;51.970;5.892;2023-12-22T05:10:25;5.70;86.30
47338;DHT22;33069;51.970;5.892;2023-12-22T05:13:12;5.70;86.70
47338;DHT22;33069;51.970;5.892;2023-12-22T05:15:58;5.70;87.00
47338;DHT22;33069;51.970;5.892;2023-12-22T05:18:44;5.70;87.00
47338;DHT22;33069;51.970;5.892;2023-12-22T05:21:30;5.70;86.80
47338;DHT22;33069;51.970;5.892;2023-12-22T05:24:16;5.70;87.00
47338;DHT22;33069;51.970;5.892;2023-12-22T05:27:02;5.70;86.90
47338;DHT22;33069;51.970;5.892;2023-12-22T05:29:48;5.70;86.70
47338;DHT22;33069;51.970;5.892;2023-12-22T05:32:35;5.70;86.60
47338;DHT22;33069;51.970;5.892;2023-12-22T05:35:21;5.70;86.70
47338;DHT22;33069;51.970;5.892;2023-12-22T05:38:07;5.80;86.60
47338;DHT22;33069;51.970;5.892;2023-12-22T05:40:53;5.80;86.70
47338;DHT22;33069;51.970;5.892;2023-12-22T05:43:39;5.80;86.70
47338;DHT22;33069;51.970;5.892;2023-12-22T05:46:25;5.80;86.80
47338;DHT22;33069;51.970;5.892;2023-12-22T05:49:11;5.80;86.90
47338;DHT22;33069;51.970;5.892;2023-12-22T05:51:57;5.80;86.90
47338;DHT22;33069;51.970;5.892;2023-12-22T05:54:43;5.80;86.90
47338;DHT22;33069;51.970;5.892;2023-12-22T05:57:29;5.90;86.90
47338;DHT22;33069;51.970;5.892;2023-12-22T06:00:15;5.90;86.70
47338;DHT22;33069;51.970;5.892;2023-12-22T06:03:01;6.00;86.20
47338;DHT22;33069;51.970;5.892;2023-12-22T06:05:47;6.20;85.90
47338;DHT22;33069;51.970;5.892;2023-12-22T06:08:34;6.20;85.30
47338;DHT22;33069;51.970;5.892;2023-12-22T06:11:20;6.50;84.70
47338;DHT22;33069;51.970;5.892;2023-12-22T06:14:06;6.60;84.10
47338;DHT22;33069;51.970;5.892;2023-12-22T06:16:52;6.70;83.40
47338;DHT22;33069;51.970;5.892;2023-12-22T06:19:39;6.80;83.00
47338;DHT22;33069;51.970;5.892;2023-12-22T06:22:25;6.90;82.60
47338;DHT22;33069;51.970;5.892;2023-12-22T06:25:11;7.10;82.00
47338;DHT22;33069;51.970;5.892;2023-12-22T06:27:57;7.20;82.00
47338;DHT22;33069;51.970;5.892;2023-12-22T06:30:43;7.30;81.90
47338;DHT22;33069;51.970;5.892;2023-12-22T06:33:30;7.30;81.90
47338;DHT22;33069;51.970;5.892;2023-12-22T06:36:23;7.30;82.10
47338;DHT22;33069;51.970;5.892;2023-12-22T06:39:09;7.40;82.00
47338;DHT22;33069;51.970;5.892;2023-12-22T06:41:55;7.50;81.90
47338;DHT22;33069;51.970;5.892;2023-12-22T06:44:41;7.60;81.60
47338;DHT22;33069;51.970;5.892;2023-12-22T06:47:29;7.70;81.70
47338;DHT22;33069;51.970;5.892;2023-12-22T06:50:15;7.70;81.90
47338;DHT22;33069;51.970;5.892;2023-12-22T06:53:01;7.70;81.70
47338;DHT22;33069;51.970;5.892;2023-12-22T06:55:47;7.80;81.20
47338;DHT22;33069;51.970;5.892;2023-12-22T06:58:33;7.80;81.10
47338;DHT22;33069;51.970;5.892;2023-12-22T07:01:24;7.90;80.70
47338;DHT22;33069;51.970;5.892;2023-12-22T07:04:10;7.90;80.90
47338;DHT22;33069;51.970;5.892;2023-12-22T07:06:56;7.90;81.00
47338;DHT22;33069;51.970;5.892;2023-12-22T07:09:42;7.90;80.80
47338;DHT22;33069;51.970;5.892;2023-12-22T07:12:28;7.90;81.10
47338;DHT22;33069;51.970;5.892;2023-12-22T07:15:14;8.00;80.90
47338;DHT22;33069;51.970;5.892;2023-12-22T07:18:00;8.00;81.10
47338;DHT22;33069;51.970;5.892;2023-12-22T07:20:46;8.00;81.20
47338;DHT22;33069;51.970;5.892;2023-12-22T07:23:32;8.10;81.20
47338;DHT22;33069;51.970;5.892;2023-12-22T07:26:18;8.00;81.30
47338;DHT22;33069;51.970;5.892;2023-12-22T07:29:04;8.10;81.40
47338;DHT22;33069;51.970;5.892;2023-12-22T07:31:50;8.10;81.00
47338;DHT22;33069;51.970;5.892;2023-12-22T07:34:36;8.20;81.00
47338;DHT22;33069;51.970;5.892;2023-12-22T07:37:22;8.20;80.70
47338;DHT22;33069;51.970;5.892;2023-12-22T07:40:09;8.30;80.80
47338;DHT22;33069;51.970;5.892;2023-12-22T07:42:55;8.30;80.80
47338;DHT22;33069;51.970;5.892;2023-12-22T07:45:41;8.30;80.70
47338;DHT22;33069;51.970;5.892;2023-12-22T07:48:27;8.30;80.40
47338;DHT22;33069;51.970;5.892;2023-12-22T07:51:13;8.30;80.50
47338;DHT22;33069;51.970;5.892;2023-12-22T07:53:59;8.40;80.10
47338;DHT22;33069;51.970;5.892;2023-12-22T07:56:45;8.40;80.30
47338;DHT22;33069;51.970;5.892;2023-12-22T07:59:31;8.30;80.80
47338;DHT22;33069;51.970;5.892;2023-12-22T08:02:17;8.40;80.90
47338;DHT22;33069;51.970;5.892;2023-12-22T08:05:03;8.40;80.90
47338;DHT22;33069;51.970;5.892;2023-12-22T08:07:49;8.30;81.10
47338;DHT22;33069;51.970;5.892;2023-12-22T08:10:35;8.40;80.80
47338;DHT22;33069;51.970;5.892;2023-12-22T08:13:21;8.40;80.80
47338;DHT22;33069;51.970;5.892;2023-12-22T08:16:07;8.40;81.00
47338;DHT22;33069;51.970;5.892;2023-12-22T08:18:53;8.30;82.70
47338;DHT22;33069;51.970;5.892;2023-12-22T08:21:39;8.00;83.60
47338;DHT22;33069;51.970;5.892;2023-12-22T08:24:25;7.70;84.20
47338;DHT22;33069;51.970;5.892;2023-12-22T08:27:11;7.50;84.90
47338;DHT22;33069;51.970;5.892;2023-12-22T08:29:57;7.50;85.30
47338;DHT22;33069;51.970;5.892;2023-12-22T08:32:43;7.40;85.40
47338;DHT22;33069;51.970;5.892;2023-12-22T08:35:29;7.40;85.70
47338;DHT22;33069;51.970;5.892;2023-12-22T08:38:16;7.30;86.30
47338;DHT22;33069;51.970;5.892;2023-12-22T08:41:03;7.30;86.40
47338;DHT22;33069;51.970;5.892;2023-12-22T08:43:49;7.40;86.80
47338;DHT22;33069;51.970;5.892;2023-12-22T08:46:35;7.40;87.00
47338;DHT22;33069;51.970;5.892;2023-12-22T08:49:21;7.50;87.20
47338;DHT22;33069;51.970;5.892;2023-12-22T08:52:07;7.50;87.30
47338;DHT22;33069;51.970;5.892;2023-12-22T08:54:53;7.60;87.50
47338;DHT22;33069;51.970;5.892;2023-12-22T08:57:40;7.70;87.60
47338;DHT22;33069;51.970;5.892;2023-12-22T09:00:26;7.80;87.60
47338;DHT22;33069;51.970;5.892;2023-12-22T09:03:12;7.80;87.50
47338;DHT22;33069;51.970;5.892;2023-12-22T09:05:57;7.80;87.40
47338;DHT22;33069;51.970;5.892;2023-12-22T09:08:44;7.80;87.10
47338;DHT22;33069;51.970;5.892;2023-12-22T09:11:30;7.80;87.00
47338;DHT22;33069;51.970;5.892;2023-12-22T09:14:16;7.80;87.00
47338;DHT22;33069;51.970;5.892;2023-12-22T09:17:02;7.90;86.70
47338;DHT22;33069;51.970;5.892;2023-12-22T09:19:48;7.90;86.70
47338;DHT22;33069;51.970;5.892;2023-12-22T09:22:34;8.00;86.40
47338;DHT22;33069;51.970;5.892;2023-12-22T09:25:21;8.00;86.70
47338;DHT22;33069;51.970;5.892;2023-12-22T09:28:07;8.00;86.80
47338;DHT22;33069;51.970;5.892;2023-12-22T09:30:53;8.10;86.80
47338;DHT22;33069;51.970;5.892;2023-12-22T09:33:40;8.20;86.80
47338;DHT22;33069;51.970;5.892;2023-12-22T09:36:26;8.30;86.70
47338;DHT22;33069;51.970;5.892;2023-12-22T09:39:12;8.40;86.70
47338;DHT22;33069;51.970;5.892;2023-12-22T09:42:02;8.40;86.70
47338;DHT22;33069;51.970;5.892;2023-12-22T09:44:49;8.50;86.70
47338;DHT22;33069;51.970;5.892;2023-12-22T09:47:38;8.50;86.60
47338;DHT22;33069;51.970;5.892;2023-12-22T09:50:24;8.50;86.70
47338;DHT22;33069;51.970;5.892;2023-12-22T09:53:14;8.40;86.50
47338;DHT22;33069;51.970;5.892;2023-12-22T09:56:01;8.00;85.90
47338;DHT22;33069;51.970;5.892;2023-12-22T09:58:48;7.90;85.50
47338;DHT22;33069;51.970;5.892;2023-12-22T10:01:38;7.80;86.00
47338;DHT22;33069;51.970;5.892;2023-12-22T10:04:25;7.70;86.80
47338;DHT22;33069;51.970;5.892;2023-12-22T10:07:12;7.50;87.40
47338;DHT22;33069;51.970;5.892;2023-12-22T10:10:00;7.50;86.90
47338;DHT22;33069;51.970;5.892;2023-12-22T10:12:46;7.60;86.60
47338;DHT22;33069;51.970;5.892;2023-12-22T10:15:33;7.60;86.60
47338;DHT22;33069;51.970;5.892;2023-12-22T10:18:19;7.50;86.90
47338;DHT22;33069;51.970;5.892;2023-12-22T10:21:05;7.50;87.40
47338;DHT22;33069;51.970;5.892;2023-12-22T10:23:51;7.50;87.60
47338;DHT22;33069;51.970;5.892;2023-12-22T10:26:37;7.50;87.90
47338;DHT22;33069;51.970;5.892;2023-12-22T10:29:23;7.70;88.20
47338;DHT22;33069;51.970;5.892;2023-12-22T10:32:09;7.90;88.20
47338;DHT22;33069;51.970;5.892;2023-12-22T10:34:56;8.00;88.20
47338;DHT22;33069;51.970;5.892;2023-12-22T10:37:48;8.20;88.20
47338;DHT22;33069;51.970;5.892;2023-12-22T10:40:38;8.40;87.90
47338;DHT22;33069;51.970;5.892;2023-12-22T10:43:24;8.50;87.90
47338;DHT22;33069;51.970;5.892;2023-12-22T10:46:11;8.60;88.00
47338;DHT22;33069;51.970;5.892;2023-12-22T10:48:58;8.80;87.90
47338;DHT22;33069;51.970;5.892;2023-12-22T10:51:44;8.80;87.90
47338;DHT22;33069;51.970;5.892;2023-12-22T10:54:30;8.80;88.30
47338;DHT22;33069;51.970;5.892;2023-12-22T10:57:20;8.70;88.80
47338;DHT22;33069;51.970;5.892;2023-12-22T11:00:06;8.70;89.00
47338;DHT22;33069;51.970;5.892;2023-12-22T11:02:58;8.80;89.00
47338;DHT22;33069;51.970;5.892;2023-12-22T11:05:48;8.70;89.10
47338;DHT22;33069;51.970;5.892;2023-12-22T11:08:36;8.80;88.70
47338;DHT22;33069;51.970;5.892;2023-12-22T11:11:32;8.80;88.60
47338;DHT22;33069;51.970;5.892;2023-12-22T11:14:19;8.70;89.00
47338;DHT22;33069;51.970;5.892;2023-12-22T11:17:05;8.80;88.80
47338;DHT22;33069;51.970;5.892;2023-12-22T11:19:54;8.90;88.50
47338;DHT22;33069;51.970;5.892;2023-12-22T11:22:42;9.00;87.40
47338;DHT22;33069;51.970;5.892;2023-12-22T11:25:28;9.10;87.10
47338;DHT22;33069;51.970;5.892;2023-12-22T11:28:16;9.10;87.10
47338;DHT22;33069;51.970;5.892;2023-12-22T11:31:04;9.10;87.00
47338;DHT22;33069;51.970;5.892;2023-12-22T11:33:52;9.20;86.50
47338;DHT22;33069;51.970;5.892;2023-12-22T11:36:38;9.30;86.20
47338;DHT22;33069;51.970;5.892;2023-12-22T11:39:25;9.30;86.40
47338;DHT22;33069;51.970;5.892;2023-12-22T11:42:16;9.40;85.20
47338;DHT22;33069;51.970;5.892;2023-12-22T11:45:03;9.40;85.10
47338;DHT22;33069;51.970;5.892;2023-12-22T11:47:50;9.40;85.20
47338;DHT22;33069;51.970;5.892;2023-12-22T11:50:37;9.50;84.10
47338;DHT22;33069;51.970;5.892;2023-12-22T11:53:25;9.50;83.50
47338;DHT22;33069;51.970;5.892;2023-12-22T11:56:15;9.50;84.20
47338;DHT22;33069;51.970;5.892;2023-12-22T11:59:04;9.30;85.20
47338;DHT22;33069;51.970;5.892;2023-12-22T12:01:54;9.20;85.70
47338;DHT22;33069;51.970;5.892;2023-12-22T12:04:41;9.30;85.10
47338;DHT22;33069;51.970;5.892;2023-12-22T12:07:40;9.30;85.20
47338;DHT22;33069;51.970;5.892;2023-12-22T12:13:22;9.30;85.40
47338;DHT22;33069;51.970;5.892;2023-12-22T12:16:11;9.30;85.10
47338;DHT22;33069;51.970;5.892;2023-12-22T12:18:58;9.40;84.30
47338;DHT22;33069;51.970;5.892;2023-12-22T12:21:45;9.40;84.40
47338;DHT22;33069;51.970;5.892;2023-12-22T12:24:31;9.40;84.30
47338;DHT22;33069;51.970;5.892;2023-12-22T12:27:20;9.50;83.80
47338;DHT22;33069;51.970;5.892;2023-12-22T12:30:13;9.40;83.40
47338;DHT22;33069;51.970;5.892;2023-12-22T12:33:06;9.40;84.30
47338;DHT22;33069;51.970;5.892;2023-12-22T12:35:54;9.20;85.50
47338;DHT22;33069;51.970;5.892;2023-12-22T12:38:55;9.20;86.00
47338;DHT22;33069;51.970;5.892;2023-12-22T12:41:48;9.20;86.10
47338;DHT22;33069;51.970;5.892;2023-12-22T12:44:38;9.20;86.00
47338;DHT22;33069;51.970;5.892;2023-12-22T12:47:25;9.30;85.80
47338;DHT22;33069;51.970;5.892;2023-12-22T12:50:11;9.50;85.00
47338;DHT22;33069;51.970;5.892;2023-12-22T12:52:57;9.50;84.70
47338;DHT22;33069;51.970;5.892;2023-12-22T12:55:43;9.50;84.50
47338;DHT22;33069;51.970;5.892;2023-12-22T12:58:31;9.70;82.50
47338;DHT22;33069;51.970;5.892;2023-12-22T13:01:17;9.80;81.70
47338;DHT22;33069;51.970;5.892;2023-12-22T13:04:03;9.80;81.70
47338;DHT22;33069;51.970;5.892;2023-12-22T13:06:50;9.90;81.60
47338;DHT22;33069;51.970;5.892;2023-12-22T13:09:36;10.00;80.60
47338;DHT22;33069;51.970;5.892;2023-12-22T13:12:23;10.00;80.50
47338;DHT22;33069;51.970;5.892;2023-12-22T13:15:10;10.10;79.80
47338;DHT22;33069;51.970;5.892;2023-12-22T13:17:56;10.20;79.30
47338;DHT22;33069;51.970;5.892;2023-12-22T13:20:42;10.10;80.30
47338;DHT22;33069;51.970;5.892;2023-12-22T13:23:28;10.00;80.90
47338;DHT22;33069;51.970;5.892;2023-12-22T13:26:18;9.80;82.30
47338;DHT22;33069;51.970;5.892;2023-12-22T13:29:06;9.80;82.70
47338;DHT22;33069;51.970;5.892;2023-12-22T13:31:52;9.80;82.60
47338;DHT22;33069;51.970;5.892;2023-12-22T13:34:38;9.80;82.30
47338;DHT22;33069;51.970;5.892;2023-12-22T13:37:24;9.70;82.70
47338;DHT22;33069;51.970;5.892;2023-12-22T13:40:12;9.70;82.50
47338;DHT22;33069;51.970;5.892;2023-12-22T13:42:59;9.80;82.00
47338;DHT22;33069;51.970;5.892;2023-12-22T13:45:49;9.90;81.50
47338;DHT22;33069;51.970;5.892;2023-12-22T13:48:36;9.70;82.20
47338;DHT22;33069;51.970;5.892;2023-12-22T13:51:22;10.00;80.90
47338;DHT22;33069;51.970;5.892;2023-12-22T13:54:08;10.00;81.00
47338;DHT22;33069;51.970;5.892;2023-12-22T13:56:55;9.70;82.80
47338;DHT22;33069;51.970;5.892;2023-12-22T13:59:40;9.80;82.10
47338;DHT22;33069;51.970;5.892;2023-12-22T14:02:26;9.90;81.50
47338;DHT22;33069;51.970;5.892;2023-12-22T14:05:13;9.90;81.50
47338;DHT22;33069;51.970;5.892;2023-12-22T14:07:58;9.70;82.70
47338;DHT22;33069;51.970;5.892;2023-12-22T14:10:48;9.70;82.30
47338;DHT22;33069;51.970;5.892;2023-12-22T14:13:34;9.80;82.20
47338;DHT22;33069;51.970;5.892;2023-12-22T14:16:26;9.60;83.80
47338;DHT22;33069;51.970;5.892;2023-12-22T14:19:12;9.40;84.50
47338;DHT22;33069;51.970;5.892;2023-12-22T14:21:58;9.50;85.20
47338;DHT22;33069;51.970;5.892;2023-12-22T14:24:43;9.30;86.20
47338;DHT22;33069;51.970;5.892;2023-12-22T14:27:30;9.20;86.90
47338;DHT22;33069;51.970;5.892;2023-12-22T14:30:16;9.20;86.60
47338;DHT22;33069;51.970;5.892;2023-12-22T14:33:02;9.10;87.20
47338;DHT22;33069;51.970;5.892;2023-12-22T14:35:48;9.00;88.10
47338;DHT22;33069;51.970;5.892;2023-12-22T14:38:34;9.00;87.70
47338;DHT22;33069;51.970;5.892;2023-12-22T14:41:20;9.10;87.30
47338;DHT22;33069;51.970;5.892;2023-12-22T14:44:06;9.20;87.40
47338;DHT22;33069;51.970;5.892;2023-12-22T14:46:52;9.10;87.70
47338;DHT22;33069;51.970;5.892;2023-12-22T14:49:38;9.20;87.40
47338;DHT22;33069;51.970;5.892;2023-12-22T14:52:25;9.30;87.00
47338;DHT22;33069;51.970;5.892;2023-12-22T14:55:11;9.40;86.30
47338;DHT22;33069;51.970;5.892;2023-12-22T14:57:56;9.30;86.40
47338;DHT22;33069;51.970;5.892;2023-12-22T15:00:42;9.50;85.10
47338;DHT22;33069;51.970;5.892;2023-12-22T15:03:28;9.60;85.10
47338;DHT22;33069;51.970;5.892;2023-12-22T15:06:14;9.50;85.30
47338;DHT22;33069;51.970;5.892;2023-12-22T15:09:01;9.50;85.20
47338;DHT22;33069;51.970;5.892;2023-12-22T15:11:47;9.40;85.60
47338;DHT22;33069;51.970;5.892;2023-12-22T15:14:33;9.50;85.10
47338;DHT22;33069;51.970;5.892;2023-12-22T15:17:19;9.50;85.00
47338;DHT22;33069;51.970;5.892;2023-12-22T15:20:05;9.50;85.30
47338;DHT22;33069;51.970;5.892;2023-12-22T15:22:52;9.40;85.80
47338;DHT22;33069;51.970;5.892;2023-12-22T15:25:38;9.30;86.20
47338;DHT22;33069;51.970;5.892;2023-12-22T15:28:24;9.30;86.70
47338;DHT22;33069;51.970;5.892;2023-12-22T15:31:10;9.20;87.40
47338;DHT22;33069;51.970;5.892;2023-12-22T15:33:57;9.20;87.40
47338;DHT22;33069;51.970;5.892;2023-12-22T15:36:43;9.30;87.20
47338;DHT22;33069;51.970;5.892;2023-12-22T15:39:29;9.30;87.20
47338;DHT22;33069;51.970;5.892;2023-12-22T15:42:16;9.30;87.00
47338;DHT22;33069;51.970;5.892;2023-12-22T15:45:02;9.40;86.50
47338;DHT22;33069;51.970;5.892;2023-12-22T15:47:49;9.40;85.90
47338;DHT22;33069;51.970;5.892;2023-12-22T15:50:35;9.30;86.10
47338;DHT22;33069;51.970;5.892;2023-12-22T15:53:21;9.40;86.10
47338;DHT22;33069;51.970;5.892;2023-12-22T15:56:08;9.50;85.40
47338;DHT22;33069;51.970;5.892;2023-12-22T15:58:56;9.40;85.30
47338;DHT22;33069;51.970;5.892;2023-12-22T16:01:43;9.40;85.40
47338;DHT22;33069;51.970;5.892;2023-12-22T16:04:29;9.40;85.90
47338;DHT22;33069;51.970;5.892;2023-12-22T16:07:16;9.40;85.90
47338;DHT22;33069;51.970;5.892;2023-12-22T16:10:02;9.40;85.40
47338;DHT22;33069;51.970;5.892;2023-12-22T16:12:48;9.40;85.70
47338;DHT22;33069;51.970;5.892;2023-12-22T16:15:34;9.40;85.60
47338;DHT22;33069;51.970;5.892;2023-12-22T16:18:20;9.50;84.80
47338;DHT22;33069;51.970;5.892;2023-12-22T16:21:06;9.50;84.80
47338;DHT22;33069;51.970;5.892;2023-12-22T16:23:52;9.50;84.90
47338;DHT22;33069;51.970;5.892;2023-12-22T16:26:38;9.30;85.90
47338;DHT22;33069;51.970;5.892;2023-12-22T16:29:24;9.30;86.20
47338;DHT22;33069;51.970;5.892;2023-12-22T16:32:10;9.20;86.90
47338;DHT22;33069;51.970;5.892;2023-12-22T16:34:56;9.20;86.80
47338;DHT22;33069;51.970;5.892;2023-12-22T16:37:45;9.20;86.90
47338;DHT22;33069;51.970;5.892;2023-12-22T16:40:32;9.20;87.00
47338;DHT22;33069;51.970;5.892;2023-12-22T16:43:18;9.30;86.80
47338;DHT22;33069;51.970;5.892;2023-12-22T16:46:03;9.30;86.60
47338;DHT22;33069;51.970;5.892;2023-12-22T16:48:52;9.40;85.70
47338;DHT22;33069;51.970;5.892;2023-12-22T16:51:38;9.60;84.70
47338;DHT22;33069;51.970;5.892;2023-12-22T16:54:24;9.60;84.20
47338;DHT22;33069;51.970;5.892;2023-12-22T16:57:10;9.60;85.00
47338;DHT22;33069;51.970;5.892;2023-12-22T16:59:56;9.40;86.00
47338;DHT22;33069;51.970;5.892;2023-12-22T17:02:42;9.40;86.40
47338;DHT22;33069;51.970;5.892;2023-12-22T17:05:28;9.30;87.00
47338;DHT22;33069;51.970;5.892;2023-12-22T17:08:14;9.20;87.50
47338;DHT22;33069;51.970;5.892;2023-12-22T17:11:01;9.30;86.60
47338;DHT22;33069;51.970;5.892;2023-12-22T17:13:47;9.30;86.50
47338;DHT22;33069;51.970;5.892;2023-12-22T17:16:33;9.30;86.40
47338;DHT22;33069;51.970;5.892;2023-12-22T17:19:19;9.40;86.10
47338;DHT22;33069;51.970;5.892;2023-12-22T17:22:05;9.50;85.70
47338;DHT22;33069;51.970;5.892;2023-12-22T17:24:51;9.50;85.20
47338;DHT22;33069;51.970;5.892;2023-12-22T17:27:37;9.50;85.00
47338;DHT22;33069;51.970;5.892;2023-12-22T17:30:23;9.60;84.50
47338;DHT22;33069;51.970;5.892;2023-12-22T17:33:11;9.80;83.00
47338;DHT22;33069;51.970;5.892;2023-12-22T17:35:56;9.70;83.40
47338;DHT22;33069;51.970;5.892;2023-12-22T17:38:42;9.50;84.70
47338;DHT22;33069;51.970;5.892;2023-12-22T17:41:29;9.00;85.70
47338;DHT22;33069;51.970;5.892;2023-12-22T17:44:15;8.30;87.00
47338;DHT22;33069;51.970;5.892;2023-12-22T17:47:01;7.90;88.00
47338;DHT22;33069;51.970;5.892;2023-12-22T17:49:48;7.80;88.30
47338;DHT22;33069;51.970;5.892;2023-12-22T17:52:34;7.80;88.30